PAL912 RPLL-VHHH
Flight info
| Callsign | PAL912 |
|---|---|
| Flight time | 1h 38m |
| Altitude | 38000 |
| Route | CAB2R CAB A461 NOMAN V532 BETTY |
| Aircraft | A35K/H-SDE2E3GHIJ3J4J5LM1ORWXY/LB1D1 |
Departure
| Time | 2026-05-07 07:36 |
|---|---|
| Airport | Ninoy Aquino International Airport (RPLL) |
Arrival
| Time | 2026-05-07 09:15 |
|---|---|
| Airport | Hong Kong International Airport (VHHH) |
| Time | Latitude | Longitude | Altitude | Speed | Heading |
|---|---|---|---|---|---|
| 2026-05-07 07:06 | 14.50502 | 121.00727 | 75 ft | 0 kts | 277° |
| 2026-05-07 07:10 | 14.50502 | 121.00728 | 75 ft | 0 kts | 277° |
| 2026-05-07 07:23 | 14.50500 | 121.00743 | 66 ft | 2 kts | 277° |
| 2026-05-07 07:23 | 14.50498 | 121.00760 | 68 ft | 2 kts | 278° |
| 2026-05-07 07:23 | 14.50495 | 121.00777 | 64 ft | 2 kts | 279° |
| 2026-05-07 07:24 | 14.50492 | 121.00794 | 64 ft | 2 kts | 300° |
| 2026-05-07 07:24 | 14.50481 | 121.00806 | 64 ft | 2 kts | 292° |
| 2026-05-07 07:24 | 14.50479 | 121.00823 | 64 ft | 2 kts | 256° |
| 2026-05-07 07:24 | 14.50485 | 121.00839 | 64 ft | 2 kts | 245° |
| 2026-05-07 07:25 | 14.50486 | 121.00843 | 64 ft | 0 kts | 240° |
| 2026-05-07 07:26 | 14.50487 | 121.00843 | 64 ft | 0 kts | 240° |
| 2026-05-07 07:27 | 14.50486 | 121.00843 | 64 ft | 0 kts | 240° |
| 2026-05-07 07:27 | 14.50473 | 121.00820 | 64 ft | 8 kts | 236° |
| 2026-05-07 07:27 | 14.50444 | 121.00812 | 66 ft | 5 kts | 184° |
| 2026-05-07 07:27 | 14.50400 | 121.00804 | 66 ft | 8 kts | 201° |
| 2026-05-07 07:28 | 14.50359 | 121.00758 | 65 ft | 10 kts | 236° |
| 2026-05-07 07:28 | 14.50318 | 121.00688 | 63 ft | 13 kts | 239° |
| 2026-05-07 07:28 | 14.50270 | 121.00603 | 63 ft | 14 kts | 239° |
| 2026-05-07 07:28 | 14.50223 | 121.00519 | 64 ft | 11 kts | 240° |
| 2026-05-07 07:29 | 14.50193 | 121.00466 | 65 ft | 7 kts | 240° |
| 2026-05-07 07:29 | 14.50184 | 121.00449 | 63 ft | 0 kts | 240° |
| 2026-05-07 07:29 | 14.50180 | 121.00442 | 69 ft | 2 kts | 240° |
| 2026-05-07 07:29 | 14.50175 | 121.00432 | 69 ft | 0 kts | 240° |
| 2026-05-07 07:31 | 14.50174 | 121.00431 | 69 ft | 1 kts | 240° |
| 2026-05-07 07:31 | 14.50166 | 121.00417 | 64 ft | 6 kts | 240° |
| 2026-05-07 07:31 | 14.50126 | 121.00346 | 64 ft | 14 kts | 240° |
| 2026-05-07 07:31 | 14.50075 | 121.00254 | 64 ft | 16 kts | 240° |
| 2026-05-07 07:32 | 14.50015 | 121.00147 | 66 ft | 18 kts | 240° |
| 2026-05-07 07:32 | 14.49950 | 121.00029 | 64 ft | 19 kts | 241° |
| 2026-05-07 07:32 | 14.49885 | 120.99969 | 68 ft | 5 kts | 175° |
| 2026-05-07 07:32 | 14.49884 | 120.99970 | 66 ft | 0 kts | 167° |
| 2026-05-07 07:34 | 14.49883 | 120.99970 | 66 ft | 0 kts | 167° |
| 2026-05-07 07:34 | 14.49850 | 120.99983 | 67 ft | 13 kts | 155° |
| 2026-05-07 07:34 | 14.49811 | 121.00024 | 67 ft | 4 kts | 104° |
| 2026-05-07 07:35 | 14.49816 | 121.00056 | 69 ft | 5 kts | 66° |
| 2026-05-07 07:35 | 14.49834 | 121.00095 | 64 ft | 0 kts | 60° |
| 2026-05-07 07:35 | 14.49836 | 121.00097 | 64 ft | 0 kts | 60° |
| 2026-05-07 07:36 | 14.49879 | 121.00173 | 66 ft | 44 kts | 60° |
| 2026-05-07 07:36 | 14.50158 | 121.00680 | 63 ft | 116 kts | 60° |
| 2026-05-07 07:36 | 14.50668 | 121.01570 | 225 ft | 161 kts | 60° |
| 2026-05-07 07:36 | 14.51279 | 121.02526 | 1035 ft | 158 kts | 57° |
| 2026-05-07 07:37 | 14.51884 | 121.03560 | 1633 ft | 183 kts | 62° |
| 2026-05-07 07:37 | 14.52558 | 121.04822 | 1965 ft | 218 kts | 62° |
| 2026-05-07 07:37 | 14.53328 | 121.06249 | 2310 ft | 240 kts | 60° |
| 2026-05-07 07:37 | 14.54177 | 121.07785 | 2887 ft | 249 kts | 60° |
| 2026-05-07 07:38 | 14.55049 | 121.09357 | 3566 ft | 254 kts | 60° |
| 2026-05-07 07:38 | 14.55635 | 121.10410 | 4025 ft | 256 kts | 60° |
| 2026-05-07 07:38 | 14.56602 | 121.11983 | 4693 ft | 262 kts | 51° |
| 2026-05-07 07:38 | 14.58044 | 121.13132 | 5348 ft | 267 kts | 23° |
| 2026-05-07 07:39 | 14.59880 | 121.13462 | 6014 ft | 273 kts | 2° |
| 2026-05-07 07:39 | 14.61801 | 121.13447 | 6589 ft | 279 kts | 0° |
| 2026-05-07 07:39 | 14.63752 | 121.13421 | 7182 ft | 281 kts | 1° |
| 2026-05-07 07:39 | 14.65718 | 121.13416 | 7792 ft | 284 kts | 1° |
| 2026-05-07 07:40 | 14.67701 | 121.13427 | 8392 ft | 287 kts | 1° |
| 2026-05-07 07:40 | 14.69712 | 121.13392 | 9017 ft | 291 kts | 356° |
| 2026-05-07 07:40 | 14.71702 | 121.12922 | 9676 ft | 295 kts | 342° |
| 2026-05-07 07:40 | 14.73632 | 121.12224 | 10195 ft | 300 kts | 341° |
| 2026-05-07 07:41 | 14.75670 | 121.11474 | 10466 ft | 315 kts | 341° |
| 2026-05-07 07:41 | 14.77746 | 121.10722 | 10687 ft | 329 kts | 342° |
| 2026-05-07 07:41 | 14.80018 | 121.10169 | 10898 ft | 341 kts | 352° |
| 2026-05-07 07:41 | 14.82415 | 121.09825 | 11115 ft | 354 kts | 354° |
| 2026-05-07 07:42 | 14.84900 | 121.09514 | 11398 ft | 363 kts | 354° |
| 2026-05-07 07:42 | 14.87045 | 121.09262 | 11750 ft | 366 kts | 355° |
| 2026-05-07 07:42 | 14.89563 | 121.08971 | 12190 ft | 369 kts | 355° |
| 2026-05-07 07:42 | 14.92127 | 121.08679 | 12660 ft | 372 kts | 355° |
| 2026-05-07 07:43 | 14.94712 | 121.08387 | 13097 ft | 375 kts | 355° |
| 2026-05-07 07:43 | 14.95759 | 121.08268 | 13277 ft | 376 kts | 355° |
| 2026-05-07 07:43 | 14.95932 | 121.08249 | 13307 ft | 376 kts | 355° |
| 2026-05-07 07:44 | 14.98360 | 121.07975 | 13723 ft | 379 kts | 355° |
| 2026-05-07 07:44 | 15.00976 | 121.07679 | 14109 ft | 381 kts | 355° |
| 2026-05-07 07:44 | 15.03622 | 121.07378 | 14482 ft | 384 kts | 354° |
| 2026-05-07 07:44 | 15.06289 | 121.07076 | 14880 ft | 386 kts | 355° |
| 2026-05-07 07:45 | 15.08966 | 121.06777 | 15294 ft | 388 kts | 355° |
| 2026-05-07 07:45 | 15.11662 | 121.06476 | 15702 ft | 390 kts | 354° |
| 2026-05-07 07:45 | 15.14367 | 121.06172 | 16118 ft | 392 kts | 354° |
| 2026-05-07 07:45 | 15.17085 | 121.05868 | 16524 ft | 394 kts | 354° |
| 2026-05-07 07:46 | 15.19820 | 121.05563 | 16918 ft | 396 kts | 354° |
| 2026-05-07 07:46 | 15.22570 | 121.05258 | 17312 ft | 399 kts | 354° |
| 2026-05-07 07:46 | 15.25339 | 121.04948 | 17694 ft | 401 kts | 354° |
| 2026-05-07 07:46 | 15.28123 | 121.04634 | 18085 ft | 403 kts | 354° |
| 2026-05-07 07:47 | 15.30918 | 121.04323 | 18420 ft | 405 kts | 354° |
| 2026-05-07 07:47 | 15.33735 | 121.04008 | 18723 ft | 408 kts | 354° |
| 2026-05-07 07:47 | 15.36564 | 121.03692 | 19047 ft | 410 kts | 354° |
| 2026-05-07 07:47 | 15.39411 | 121.03373 | 19369 ft | 412 kts | 354° |
| 2026-05-07 07:48 | 15.42268 | 121.03052 | 19688 ft | 414 kts | 354° |
| 2026-05-07 07:48 | 15.45145 | 121.02724 | 20000 ft | 417 kts | 353° |
| 2026-05-07 07:48 | 15.47969 | 121.02176 | 20319 ft | 419 kts | 344° |
| 2026-05-07 07:48 | 15.50706 | 121.01122 | 20632 ft | 421 kts | 336° |
| 2026-05-07 07:49 | 15.53365 | 120.99818 | 20943 ft | 424 kts | 333° |
| 2026-05-07 07:49 | 15.55990 | 120.98409 | 21258 ft | 426 kts | 332° |
| 2026-05-07 07:49 | 15.58608 | 120.96961 | 21579 ft | 428 kts | 332° |
| 2026-05-07 07:49 | 15.61240 | 120.95502 | 21877 ft | 430 kts | 332° |
| 2026-05-07 07:50 | 15.63893 | 120.94047 | 22187 ft | 432 kts | 332° |
| 2026-05-07 07:50 | 15.66560 | 120.92603 | 22493 ft | 434 kts | 332° |
| 2026-05-07 07:50 | 15.69250 | 120.91160 | 22797 ft | 435 kts | 332° |
| 2026-05-07 07:50 | 15.71949 | 120.89721 | 23104 ft | 437 kts | 332° |
| 2026-05-07 07:51 | 15.74667 | 120.88275 | 23410 ft | 439 kts | 332° |
| 2026-05-07 07:51 | 15.77390 | 120.86827 | 23649 ft | 440 kts | 332° |
| 2026-05-07 07:51 | 15.80125 | 120.85373 | 23909 ft | 441 kts | 332° |
| 2026-05-07 07:51 | 15.82863 | 120.83916 | 24182 ft | 442 kts | 332° |
| 2026-05-07 07:52 | 15.85567 | 120.82475 | 24449 ft | 443 kts | 332° |
| 2026-05-07 07:52 | 15.88312 | 120.81011 | 24720 ft | 444 kts | 332° |
| 2026-05-07 07:52 | 15.91063 | 120.79545 | 24985 ft | 445 kts | 332° |
| 2026-05-07 07:52 | 15.93824 | 120.78072 | 25245 ft | 446 kts | 332° |
| 2026-05-07 07:53 | 15.96591 | 120.76594 | 25522 ft | 447 kts | 332° |
| 2026-05-07 07:53 | 15.99358 | 120.75116 | 25776 ft | 448 kts | 332° |
| 2026-05-07 07:53 | 16.01145 | 120.74161 | 25953 ft | 449 kts | 332° |
| 2026-05-07 07:53 | 16.03563 | 120.72870 | 26198 ft | 450 kts | 332° |
| 2026-05-07 07:54 | 16.06355 | 120.71379 | 26467 ft | 451 kts | 332° |
| 2026-05-07 07:54 | 16.09155 | 120.69882 | 26727 ft | 453 kts | 331° |
| 2026-05-07 07:54 | 16.11964 | 120.68379 | 27015 ft | 455 kts | 331° |
| 2026-05-07 07:54 | 16.14784 | 120.66870 | 27279 ft | 456 kts | 331° |
| 2026-05-07 07:55 | 16.17610 | 120.65359 | 27551 ft | 458 kts | 331° |
| 2026-05-07 07:55 | 16.18161 | 120.65064 | 27594 ft | 458 kts | 331° |
| 2026-05-07 07:56 | 16.19796 | 120.64188 | 27757 ft | 459 kts | 331° |
| 2026-05-07 07:56 | 16.22604 | 120.62668 | 28039 ft | 461 kts | 331° |
| 2026-05-07 07:56 | 16.25453 | 120.61120 | 28306 ft | 463 kts | 331° |
| 2026-05-07 07:57 | 16.28311 | 120.59571 | 28578 ft | 464 kts | 331° |
| 2026-05-07 07:57 | 16.31196 | 120.58015 | 28845 ft | 466 kts | 331° |
| 2026-05-07 07:57 | 16.34086 | 120.56460 | 29117 ft | 468 kts | 331° |
| 2026-05-07 07:57 | 16.36993 | 120.54896 | 29401 ft | 470 kts | 331° |
| 2026-05-07 07:58 | 16.39913 | 120.53329 | 29717 ft | 472 kts | 331° |
| 2026-05-07 07:58 | 16.42844 | 120.51758 | 30000 ft | 473 kts | 331° |
| 2026-05-07 07:58 | 16.45774 | 120.50188 | 30242 ft | 476 kts | 331° |
| 2026-05-07 07:58 | 16.48725 | 120.48605 | 30489 ft | 478 kts | 331° |
| 2026-05-07 07:59 | 16.51685 | 120.47015 | 30753 ft | 479 kts | 331° |
| 2026-05-07 07:59 | 16.54624 | 120.45436 | 31009 ft | 481 kts | 331° |
| 2026-05-07 07:59 | 16.57601 | 120.43837 | 31254 ft | 483 kts | 331° |
| 2026-05-07 07:59 | 16.60591 | 120.42229 | 31514 ft | 485 kts | 331° |
| 2026-05-07 08:00 | 16.63597 | 120.40611 | 31759 ft | 486 kts | 331° |
| 2026-05-07 08:00 | 16.66611 | 120.38990 | 31996 ft | 488 kts | 331° |
| 2026-05-07 08:00 | 16.69629 | 120.37346 | 32218 ft | 489 kts | 329° |
| 2026-05-07 08:00 | 16.72494 | 120.35421 | 32455 ft | 490 kts | 321° |
| 2026-05-07 08:01 | 16.75070 | 120.33093 | 32668 ft | 491 kts | 315° |
| 2026-05-07 08:01 | 16.77497 | 120.30578 | 32863 ft | 493 kts | 313° |
| 2026-05-07 08:01 | 16.79880 | 120.27998 | 33073 ft | 494 kts | 313° |
| 2026-05-07 08:01 | 16.82255 | 120.25373 | 33273 ft | 496 kts | 312° |
| 2026-05-07 08:02 | 16.84583 | 120.22786 | 33540 ft | 496 kts | 312° |
| 2026-05-07 08:02 | 16.86947 | 120.20161 | 33882 ft | 494 kts | 313° |
| 2026-05-07 08:02 | 16.89300 | 120.17557 | 34177 ft | 493 kts | 313° |
| 2026-05-07 08:02 | 16.91666 | 120.14948 | 34480 ft | 492 kts | 313° |
| 2026-05-07 08:03 | 16.94020 | 120.12357 | 34768 ft | 492 kts | 313° |
| 2026-05-07 08:03 | 16.96333 | 120.09814 | 35061 ft | 491 kts | 313° |
| 2026-05-07 08:03 | 16.98681 | 120.07233 | 35376 ft | 490 kts | 313° |
| 2026-05-07 08:03 | 17.01030 | 120.04650 | 35700 ft | 489 kts | 313° |
| 2026-05-07 08:04 | 17.03375 | 120.02073 | 36000 ft | 489 kts | 313° |
| 2026-05-07 08:04 | 17.05687 | 119.99533 | 36311 ft | 488 kts | 313° |
| 2026-05-07 08:04 | 17.08027 | 119.96959 | 36620 ft | 488 kts | 313° |
| 2026-05-07 08:04 | 17.10203 | 119.94558 | 36900 ft | 487 kts | 313° |
| 2026-05-07 08:05 | 17.12612 | 119.91912 | 37232 ft | 486 kts | 314° |
| 2026-05-07 08:05 | 17.14960 | 119.89371 | 37553 ft | 486 kts | 314° |
| 2026-05-07 08:05 | 17.17314 | 119.86832 | 37806 ft | 486 kts | 314° |
| 2026-05-07 08:06 | 17.21996 | 119.81741 | 37844 ft | 484 kts | 314° |
| 2026-05-07 08:06 | 17.26649 | 119.76622 | 37845 ft | 485 kts | 313° |
| 2026-05-07 08:07 | 17.31282 | 119.71500 | 37844 ft | 484 kts | 313° |
| 2026-05-07 08:07 | 17.35913 | 119.66376 | 37846 ft | 484 kts | 313° |
| 2026-05-07 08:08 | 17.40520 | 119.61277 | 37841 ft | 484 kts | 313° |
| 2026-05-07 08:08 | 17.45143 | 119.56156 | 37845 ft | 484 kts | 313° |
| 2026-05-07 08:09 | 17.49765 | 119.51034 | 37844 ft | 484 kts | 313° |
| 2026-05-07 08:09 | 17.54382 | 119.45913 | 37847 ft | 483 kts | 313° |
| 2026-05-07 08:10 | 17.59004 | 119.40783 | 37844 ft | 483 kts | 313° |
| 2026-05-07 08:10 | 17.63617 | 119.35658 | 37849 ft | 483 kts | 313° |
| 2026-05-07 08:11 | 17.68221 | 119.30540 | 37851 ft | 482 kts | 313° |
| 2026-05-07 08:11 | 17.72823 | 119.25419 | 37848 ft | 482 kts | 313° |
| 2026-05-07 08:12 | 17.77406 | 119.20316 | 37849 ft | 482 kts | 313° |
| 2026-05-07 08:12 | 17.81985 | 119.15212 | 37850 ft | 482 kts | 313° |
| 2026-05-07 08:13 | 17.86586 | 119.10081 | 37848 ft | 482 kts | 313° |
| 2026-05-07 08:13 | 17.91180 | 119.04953 | 37853 ft | 481 kts | 313° |
| 2026-05-07 08:14 | 17.95770 | 118.99825 | 37856 ft | 481 kts | 313° |
| 2026-05-07 08:14 | 18.00352 | 118.94705 | 37855 ft | 481 kts | 313° |
| 2026-05-07 08:15 | 18.04826 | 118.89702 | 37852 ft | 481 kts | 313° |
| 2026-05-07 08:15 | 18.09405 | 118.84568 | 37857 ft | 480 kts | 313° |
| 2026-05-07 08:16 | 18.13977 | 118.79440 | 37859 ft | 480 kts | 313° |
| 2026-05-07 08:16 | 18.18518 | 118.74344 | 37860 ft | 480 kts | 313° |
| 2026-05-07 08:17 | 18.23085 | 118.69216 | 37861 ft | 479 kts | 313° |
| 2026-05-07 08:17 | 18.27641 | 118.64096 | 37864 ft | 479 kts | 313° |
| 2026-05-07 08:18 | 18.31949 | 118.59251 | 37861 ft | 479 kts | 313° |
| 2026-05-07 08:18 | 18.36514 | 118.54113 | 37864 ft | 479 kts | 313° |
| 2026-05-07 08:19 | 18.41066 | 118.48985 | 37863 ft | 479 kts | 313° |
| 2026-05-07 08:19 | 18.45583 | 118.43892 | 37868 ft | 479 kts | 313° |
| 2026-05-07 08:20 | 18.50140 | 118.38750 | 37870 ft | 479 kts | 313° |
| 2026-05-07 08:20 | 18.54685 | 118.33617 | 37869 ft | 479 kts | 313° |
| 2026-05-07 08:21 | 18.59231 | 118.28478 | 37868 ft | 479 kts | 313° |
| 2026-05-07 08:21 | 18.63748 | 118.23369 | 37870 ft | 479 kts | 313° |
| 2026-05-07 08:22 | 18.68290 | 118.18226 | 37866 ft | 479 kts | 313° |
| 2026-05-07 08:22 | 18.71269 | 118.14849 | 37872 ft | 479 kts | 313° |
| 2026-05-07 08:23 | 18.75058 | 118.10564 | 37870 ft | 479 kts | 313° |
| 2026-05-07 08:23 | 18.79606 | 118.05426 | 37872 ft | 479 kts | 313° |
| 2026-05-07 08:24 | 18.83383 | 118.01146 | 37872 ft | 479 kts | 313° |
| 2026-05-07 08:24 | 18.87915 | 117.95997 | 37878 ft | 478 kts | 313° |
| 2026-05-07 08:25 | 18.92448 | 117.90841 | 37877 ft | 478 kts | 313° |
| 2026-05-07 08:25 | 18.97709 | 117.84851 | 37873 ft | 478 kts | 312° |
| 2026-05-07 08:26 | 19.03729 | 117.77994 | 37873 ft | 477 kts | 313° |
| 2026-05-07 08:26 | 19.08249 | 117.72843 | 37878 ft | 477 kts | 312° |
| 2026-05-07 08:27 | 19.12757 | 117.67690 | 37881 ft | 477 kts | 312° |
| 2026-05-07 08:27 | 19.17261 | 117.62540 | 37882 ft | 476 kts | 312° |
| 2026-05-07 08:28 | 19.21741 | 117.57415 | 37880 ft | 476 kts | 312° |
| 2026-05-07 08:28 | 19.26245 | 117.52260 | 37880 ft | 476 kts | 312° |
| 2026-05-07 08:29 | 19.30735 | 117.47116 | 37880 ft | 475 kts | 312° |
| 2026-05-07 08:29 | 19.35102 | 117.42107 | 37880 ft | 475 kts | 312° |
| 2026-05-07 08:30 | 19.35792 | 117.41316 | 37879 ft | 475 kts | 312° |
| 2026-05-07 08:30 | 19.40281 | 117.36163 | 37887 ft | 475 kts | 312° |
| 2026-05-07 08:31 | 19.44753 | 117.31026 | 37885 ft | 474 kts | 312° |
| 2026-05-07 08:31 | 19.49226 | 117.25883 | 37882 ft | 474 kts | 312° |
| 2026-05-07 08:32 | 19.53692 | 117.20743 | 37881 ft | 474 kts | 312° |
| 2026-05-07 08:32 | 19.58128 | 117.15633 | 37886 ft | 473 kts | 312° |
| 2026-05-07 08:33 | 19.62586 | 117.10493 | 37884 ft | 473 kts | 312° |
| 2026-05-07 08:33 | 19.67044 | 117.05350 | 37883 ft | 472 kts | 312° |
| 2026-05-07 08:34 | 19.71490 | 117.00214 | 37883 ft | 472 kts | 312° |
| 2026-05-07 08:34 | 19.75919 | 116.95095 | 37881 ft | 472 kts | 312° |
| 2026-05-07 08:35 | 19.80358 | 116.89959 | 37887 ft | 472 kts | 312° |
| 2026-05-07 08:35 | 19.84792 | 116.84825 | 37890 ft | 472 kts | 312° |
| 2026-05-07 08:36 | 19.89222 | 116.79690 | 37890 ft | 471 kts | 312° |
| 2026-05-07 08:36 | 19.93659 | 116.74543 | 37886 ft | 471 kts | 312° |
| 2026-05-07 08:37 | 19.98073 | 116.69398 | 37883 ft | 471 kts | 311° |
| 2026-05-07 08:37 | 20.01711 | 116.63683 | 37886 ft | 470 kts | 300° |
| 2026-05-07 08:38 | 20.04814 | 116.57557 | 37890 ft | 470 kts | 298° |
| 2026-05-07 08:38 | 20.07838 | 116.51385 | 37889 ft | 470 kts | 298° |
| 2026-05-07 08:39 | 20.10860 | 116.45216 | 37889 ft | 469 kts | 298° |
| 2026-05-07 08:39 | 20.13875 | 116.39088 | 37887 ft | 469 kts | 298° |
| 2026-05-07 08:40 | 20.16905 | 116.32936 | 37893 ft | 469 kts | 298° |
| 2026-05-07 08:40 | 20.19934 | 116.26781 | 37891 ft | 468 kts | 298° |
| 2026-05-07 08:41 | 20.22937 | 116.20671 | 37894 ft | 468 kts | 298° |
| 2026-05-07 08:41 | 20.25955 | 116.14523 | 37892 ft | 467 kts | 298° |
| 2026-05-07 08:42 | 20.28966 | 116.08382 | 37895 ft | 467 kts | 298° |
| 2026-05-07 08:42 | 20.31974 | 116.02239 | 37894 ft | 467 kts | 298° |
| 2026-05-07 08:43 | 20.34955 | 115.96145 | 37894 ft | 466 kts | 298° |
| 2026-05-07 08:43 | 20.37953 | 115.90011 | 37891 ft | 466 kts | 298° |
| 2026-05-07 08:44 | 20.40942 | 115.83888 | 37896 ft | 465 kts | 298° |
| 2026-05-07 08:44 | 20.43928 | 115.77765 | 37896 ft | 465 kts | 298° |
| 2026-05-07 08:45 | 20.46903 | 115.71657 | 37893 ft | 464 kts | 298° |
| 2026-05-07 08:45 | 20.49857 | 115.65586 | 37897 ft | 463 kts | 298° |
| 2026-05-07 08:46 | 20.52825 | 115.59479 | 37896 ft | 463 kts | 298° |
| 2026-05-07 08:46 | 20.56213 | 115.53654 | 37896 ft | 461 kts | 310° |
| 2026-05-07 08:47 | 20.60597 | 115.48695 | 37896 ft | 460 kts | 315° |
| 2026-05-07 08:47 | 20.65138 | 115.43947 | 37894 ft | 460 kts | 316° |
| 2026-05-07 08:48 | 20.69726 | 115.39191 | 37896 ft | 459 kts | 316° |
| 2026-05-07 08:48 | 20.74295 | 115.34423 | 37647 ft | 457 kts | 315° |
| 2026-05-07 08:49 | 20.76572 | 115.32038 | 36857 ft | 459 kts | 315° |
| 2026-05-07 08:49 | 20.78860 | 115.29638 | 36133 ft | 461 kts | 315° |
| 2026-05-07 08:49 | 20.81147 | 115.27235 | 35430 ft | 462 kts | 315° |
| 2026-05-07 08:49 | 20.83452 | 115.24813 | 34710 ft | 464 kts | 315° |
| 2026-05-07 08:50 | 20.85735 | 115.22414 | 33909 ft | 469 kts | 315° |
| 2026-05-07 08:50 | 20.88071 | 115.19958 | 32987 ft | 473 kts | 315° |
| 2026-05-07 08:50 | 20.90430 | 115.17482 | 32123 ft | 476 kts | 315° |
| 2026-05-07 08:50 | 20.92800 | 115.14994 | 31393 ft | 476 kts | 315° |
| 2026-05-07 08:51 | 20.95157 | 115.12514 | 30799 ft | 473 kts | 314° |
| 2026-05-07 08:51 | 20.97503 | 115.10043 | 30196 ft | 471 kts | 314° |
| 2026-05-07 08:51 | 20.99838 | 115.07581 | 29529 ft | 470 kts | 314° |
| 2026-05-07 08:51 | 21.02156 | 115.05135 | 28893 ft | 467 kts | 314° |
| 2026-05-07 08:52 | 21.04437 | 115.02733 | 28288 ft | 463 kts | 314° |
| 2026-05-07 08:52 | 21.06719 | 115.00322 | 27683 ft | 460 kts | 314° |
| 2026-05-07 08:52 | 21.08980 | 114.97933 | 27083 ft | 457 kts | 314° |
| 2026-05-07 08:52 | 21.11154 | 114.95635 | 26520 ft | 454 kts | 314° |
| 2026-05-07 08:53 | 21.13403 | 114.93258 | 25933 ft | 452 kts | 314° |
| 2026-05-07 08:53 | 21.15634 | 114.90899 | 25343 ft | 449 kts | 314° |
| 2026-05-07 08:53 | 21.17853 | 114.88553 | 24761 ft | 447 kts | 314° |
| 2026-05-07 08:53 | 21.20060 | 114.86218 | 24166 ft | 445 kts | 314° |
| 2026-05-07 08:54 | 21.22255 | 114.83895 | 23577 ft | 443 kts | 314° |
| 2026-05-07 08:54 | 21.24442 | 114.81580 | 22908 ft | 440 kts | 314° |
| 2026-05-07 08:54 | 21.26609 | 114.79285 | 22282 ft | 436 kts | 314° |
| 2026-05-07 08:54 | 21.28732 | 114.77035 | 21705 ft | 432 kts | 314° |
| 2026-05-07 08:55 | 21.30856 | 114.74784 | 21101 ft | 428 kts | 314° |
| 2026-05-07 08:55 | 21.32962 | 114.72551 | 20492 ft | 424 kts | 314° |
| 2026-05-07 08:55 | 21.35051 | 114.70335 | 19902 ft | 421 kts | 313° |
| 2026-05-07 08:55 | 21.37122 | 114.68136 | 19303 ft | 418 kts | 313° |
| 2026-05-07 08:56 | 21.39185 | 114.65945 | 18703 ft | 415 kts | 313° |
| 2026-05-07 08:56 | 21.41235 | 114.63767 | 18085 ft | 413 kts | 313° |
| 2026-05-07 08:56 | 21.43267 | 114.61608 | 17425 ft | 410 kts | 313° |
| 2026-05-07 08:56 | 21.45284 | 114.59463 | 16818 ft | 406 kts | 313° |
| 2026-05-07 08:57 | 21.47298 | 114.57356 | 16214 ft | 402 kts | 316° |
| 2026-05-07 08:57 | 21.49586 | 114.55649 | 15601 ft | 402 kts | 332° |
| 2026-05-07 08:57 | 21.52198 | 114.54587 | 14997 ft | 401 kts | 340° |
| 2026-05-07 08:57 | 21.54829 | 114.53683 | 14401 ft | 398 kts | 340° |
| 2026-05-07 08:58 | 21.57457 | 114.52778 | 13807 ft | 395 kts | 340° |
| 2026-05-07 08:58 | 21.60045 | 114.51817 | 13155 ft | 390 kts | 335° |
| 2026-05-07 08:58 | 21.62290 | 114.50285 | 12681 ft | 378 kts | 315° |
| 2026-05-07 08:58 | 21.64095 | 114.48287 | 12449 ft | 371 kts | 311° |
| 2026-05-07 08:59 | 21.65788 | 114.46320 | 12201 ft | 371 kts | 311° |
| 2026-05-07 08:59 | 21.67543 | 114.44285 | 11923 ft | 371 kts | 311° |
| 2026-05-07 08:59 | 21.69299 | 114.42252 | 11662 ft | 370 kts | 311° |
| 2026-05-07 08:59 | 21.71045 | 114.40233 | 11446 ft | 364 kts | 311° |
| 2026-05-07 09:00 | 21.72713 | 114.38305 | 11238 ft | 350 kts | 311° |
| 2026-05-07 09:00 | 21.74344 | 114.36418 | 11040 ft | 337 kts | 311° |
| 2026-05-07 09:00 | 21.75911 | 114.34603 | 10859 ft | 325 kts | 310° |
| 2026-05-07 09:00 | 21.77424 | 114.32851 | 10681 ft | 313 kts | 310° |
| 2026-05-07 09:01 | 21.78883 | 114.31161 | 10479 ft | 303 kts | 310° |
| 2026-05-07 09:01 | 21.80275 | 114.29564 | 10253 ft | 288 kts | 311° |
| 2026-05-07 09:01 | 21.81660 | 114.27981 | 9967 ft | 291 kts | 311° |
| 2026-05-07 09:01 | 21.82993 | 114.26448 | 9679 ft | 291 kts | 311° |
| 2026-05-07 09:02 | 21.84373 | 114.24852 | 9444 ft | 290 kts | 310° |
| 2026-05-07 09:02 | 21.85740 | 114.23263 | 9228 ft | 290 kts | 310° |
| 2026-05-07 09:02 | 21.87107 | 114.21675 | 9015 ft | 289 kts | 310° |
| 2026-05-07 09:02 | 21.88466 | 114.20097 | 8848 ft | 291 kts | 310° |
| 2026-05-07 09:03 | 21.89603 | 114.18512 | 8628 ft | 286 kts | 300° |
| 2026-05-07 09:03 | 21.90601 | 114.16641 | 8400 ft | 283 kts | 297° |
| 2026-05-07 09:03 | 21.91548 | 114.14783 | 8190 ft | 282 kts | 297° |
| 2026-05-07 09:03 | 21.92495 | 114.12936 | 7983 ft | 282 kts | 297° |
| 2026-05-07 09:04 | 21.93447 | 114.11087 | 7775 ft | 281 kts | 297° |
| 2026-05-07 09:04 | 21.94394 | 114.09251 | 7565 ft | 280 kts | 297° |
| 2026-05-07 09:04 | 21.95339 | 114.07420 | 7362 ft | 280 kts | 297° |
| 2026-05-07 09:04 | 21.96285 | 114.05587 | 7155 ft | 279 kts | 297° |
| 2026-05-07 09:05 | 21.97224 | 114.03768 | 6960 ft | 278 kts | 297° |
| 2026-05-07 09:05 | 21.98151 | 114.01946 | 6759 ft | 277 kts | 296° |
| 2026-05-07 09:05 | 21.99076 | 114.00122 | 6557 ft | 276 kts | 297° |
| 2026-05-07 09:05 | 22.00015 | 113.98318 | 6350 ft | 275 kts | 298° |
| 2026-05-07 09:06 | 22.00949 | 113.96520 | 6142 ft | 274 kts | 297° |
| 2026-05-07 09:06 | 22.01861 | 113.94720 | 5920 ft | 274 kts | 296° |
| 2026-05-07 09:06 | 22.02762 | 113.92942 | 5738 ft | 273 kts | 296° |
| 2026-05-07 09:06 | 22.03684 | 113.91130 | 5537 ft | 272 kts | 297° |
| 2026-05-07 09:07 | 22.04587 | 113.89364 | 5342 ft | 272 kts | 297° |
| 2026-05-07 09:07 | 22.05502 | 113.87579 | 5141 ft | 271 kts | 297° |
| 2026-05-07 09:07 | 22.06414 | 113.85804 | 4941 ft | 270 kts | 297° |
| 2026-05-07 09:07 | 22.07322 | 113.84041 | 4745 ft | 269 kts | 297° |
| 2026-05-07 09:08 | 22.08231 | 113.82275 | 4542 ft | 268 kts | 297° |
| 2026-05-07 09:08 | 22.09135 | 113.80516 | 4344 ft | 269 kts | 297° |
| 2026-05-07 09:08 | 22.10114 | 113.78809 | 4181 ft | 262 kts | 306° |
| 2026-05-07 09:08 | 22.11483 | 113.77624 | 4018 ft | 255 kts | 334° |
| 2026-05-07 09:09 | 22.13178 | 113.77175 | 3859 ft | 247 kts | 352° |
| 2026-05-07 09:09 | 22.14853 | 113.76998 | 3730 ft | 237 kts | 353° |
| 2026-05-07 09:09 | 22.16464 | 113.76838 | 3625 ft | 227 kts | 353° |
| 2026-05-07 09:09 | 22.18015 | 113.76676 | 3508 ft | 219 kts | 353° |
| 2026-05-07 09:10 | 22.19517 | 113.76517 | 3298 ft | 215 kts | 353° |
| 2026-05-07 09:10 | 22.21005 | 113.76354 | 3063 ft | 214 kts | 353° |
| 2026-05-07 09:10 | 22.22408 | 113.76199 | 2847 ft | 212 kts | 353° |
| 2026-05-07 09:10 | 22.23861 | 113.76036 | 2681 ft | 213 kts | 353° |
| 2026-05-07 09:11 | 22.25341 | 113.75873 | 2551 ft | 213 kts | 353° |
| 2026-05-07 09:11 | 22.26796 | 113.75775 | 2490 ft | 203 kts | 2° |
| 2026-05-07 09:11 | 22.28071 | 113.76301 | 2308 ft | 202 kts | 43° |
| 2026-05-07 09:11 | 22.28812 | 113.77586 | 2263 ft | 203 kts | 71° |
| 2026-05-07 09:12 | 22.29243 | 113.78946 | 2146 ft | 185 kts | 75° |
| 2026-05-07 09:12 | 22.29622 | 113.80202 | 1925 ft | 168 kts | 75° |
| 2026-05-07 09:12 | 22.29957 | 113.81389 | 1650 ft | 159 kts | 76° |
| 2026-05-07 09:12 | 22.30321 | 113.82474 | 1416 ft | 149 kts | 73° |
| 2026-05-07 09:13 | 22.30654 | 113.83507 | 1232 ft | 143 kts | 75° |
| 2026-05-07 09:13 | 22.30967 | 113.84494 | 1179 ft | 146 kts | 76° |
| 2026-05-07 09:13 | 22.31190 | 113.85203 | 1157 ft | 147 kts | 73° |
| 2026-05-07 09:13 | 22.31645 | 113.86626 | 735 ft | 153 kts | 71° |
| 2026-05-07 09:14 | 22.31876 | 113.87364 | 457 ft | 155 kts | 71° |
| 2026-05-07 09:14 | 22.32287 | 113.88604 | 113 ft | 152 kts | 66° |
| 2026-05-07 09:14 | 22.32524 | 113.89309 | 53 ft | 142 kts | 68° |
| 2026-05-07 09:14 | 22.32809 | 113.90222 | 43 ft | 111 kts | 71° |
| 2026-05-07 09:15 | 22.32932 | 113.90832 | 43 ft | 56 kts | 100° |
| 2026-05-07 09:15 | 22.32910 | 113.91084 | 44 ft | 0 kts | 83° |
| 2026-05-07 09:15 | 22.32911 | 113.91097 | 44 ft | 4 kts | 82° |
| 2026-05-07 09:15 | 22.32916 | 113.91119 | 44 ft | 1 kts | 75° |
| 2026-05-07 09:16 | 22.32919 | 113.91130 | 44 ft | 3 kts | 73° |
| 2026-05-07 09:16 | 22.32937 | 113.91188 | 44 ft | 13 kts | 72° |
| 2026-05-07 09:16 | 22.32975 | 113.91305 | 44 ft | 20 kts | 70° |
| 2026-05-07 09:16 | 22.33019 | 113.91441 | 44 ft | 18 kts | 71° |
| 2026-05-07 09:17 | 22.33069 | 113.91597 | 44 ft | 24 kts | 70° |
| 2026-05-07 09:17 | 22.33128 | 113.91778 | 43 ft | 27 kts | 70° |
| 2026-05-07 09:17 | 22.33186 | 113.91960 | 43 ft | 22 kts | 71° |
| 2026-05-07 09:17 | 22.33203 | 113.92090 | 43 ft | 16 kts | 124° |
| 2026-05-07 09:18 | 22.33097 | 113.92147 | 43 ft | 18 kts | 160° |
| 2026-05-07 09:18 | 22.32968 | 113.92196 | 43 ft | 21 kts | 161° |
| 2026-05-07 09:18 | 22.32822 | 113.92251 | 43 ft | 23 kts | 161° |
| 2026-05-07 09:18 | 22.32670 | 113.92308 | 43 ft | 23 kts | 161° |
| 2026-05-07 09:19 | 22.32520 | 113.92364 | 43 ft | 23 kts | 161° |
| 2026-05-07 09:19 | 22.32374 | 113.92419 | 43 ft | 21 kts | 160° |
| 2026-05-07 09:19 | 22.32257 | 113.92485 | 43 ft | 18 kts | 116° |
| 2026-05-07 09:19 | 22.32276 | 113.92606 | 43 ft | 14 kts | 68° |
| 2026-05-07 09:20 | 22.32281 | 113.92629 | 43 ft | 1 kts | 92° |
| 2026-05-07 09:20 | 22.32268 | 113.92646 | 43 ft | 4 kts | 139° |
| 2026-05-07 09:20 | 22.32234 | 113.92665 | 43 ft | 7 kts | 158° |
| 2026-05-07 09:20 | 22.32177 | 113.92687 | 43 ft | 8 kts | 160° |
| 2026-05-07 09:21 | 22.32166 | 113.92692 | 43 ft | 1 kts | 160° |
| 2026-05-07 09:21 | 22.32144 | 113.92700 | 42 ft | 5 kts | 160° |
| 2026-05-07 09:21 | 22.32094 | 113.92719 | 42 ft | 10 kts | 160° |
| 2026-05-07 09:21 | 22.32017 | 113.92748 | 41 ft | 13 kts | 160° |
| 2026-05-07 09:22 | 22.31988 | 113.92759 | 42 ft | 1 kts | 161° |
| 2026-05-07 09:22 | 22.31978 | 113.92763 | 42 ft | 0 kts | 161° |
| 2026-05-07 09:23 | 22.31972 | 113.92765 | 42 ft | 2 kts | 161° |
| 2026-05-07 09:23 | 22.31937 | 113.92778 | 42 ft | 9 kts | 160° |
| 2026-05-07 09:23 | 22.31861 | 113.92811 | 43 ft | 11 kts | 156° |
| 2026-05-07 09:23 | 22.31813 | 113.92870 | 43 ft | 11 kts | 92° |
| 2026-05-07 09:24 | 22.31839 | 113.92963 | 43 ft | 14 kts | 71° |
| 2026-05-07 09:24 | 22.31868 | 113.93077 | 43 ft | 17 kts | 90° |
| 2026-05-07 09:24 | 22.31807 | 113.93144 | 43 ft | 12 kts | 139° |
| 2026-05-07 09:24 | 22.31795 | 113.93194 | 43 ft | 0 kts | 70° |
| 2026-05-07 09:25 | 22.31801 | 113.93211 | 43 ft | 4 kts | 70° |
| 2026-05-07 09:25 | 22.31810 | 113.93237 | 43 ft | 1 kts | 70° |
| 2026-05-07 09:25 | 22.31814 | 113.93250 | 43 ft | 2 kts | 70° |
| 2026-05-07 09:25 | 22.31815 | 113.93252 | 43 ft | 0 kts | 70° |